Time;durP1;ratioP1;P1;durP2;ratioP2;P2;SDS_P1;SDS_P2;PMS_P1;PMS_P2;Temp;Humidity;BMP_temperature;BMP_pressure;BME280_temperature;BME280_humidity;BME280_pressure;Samples;Min_cycle;Max_cycle;Signal;HPM_P1;HPM_P2
2023/12/12 00:01:43;;;;;;;4.93;1.00;;;9.30;99.90;;;;;;4993588;28;20176;-85
2023/12/12 00:04:09;;;;;;;5.50;0.80;;;9.40;99.90;;;;;;4991962;28;20200;-85
2023/12/12 00:06:34;;;;;;;5.43;1.63;;;9.30;99.90;;;;;;4988983;28;20176;-84
2023/12/12 00:09:00;;;;;;;3.80;1.63;;;9.30;99.90;;;;;;5000383;28;20222;-84
2023/12/12 00:11:25;;;;;;;12.13;1.10;;;9.40;99.90;;;;;;4992650;28;20685;-85
2023/12/12 00:13:54;;;;;;;1.73;1.00;;;9.30;99.90;;;;;;4989980;28;20215;-85
2023/12/12 00:16:20;;;;;;;5.00;0.80;;;9.40;99.90;;;;;;4990745;28;20192;-84
2023/12/12 00:18:45;;;;;;;4.77;1.10;;;9.30;99.90;;;;;;4989399;28;20223;-85
2023/12/12 00:21:11;;;;;;;10.13;2.00;;;9.20;99.90;;;;;;4995528;28;20678;-83
2023/12/12 00:23:37;;;;;;;3.23;1.27;;;9.20;99.90;;;;;;4993209;28;20841;-85
2023/12/12 00:26:02;;;;;;;3.27;1.13;;;10.40;99.90;;;;;;4989328;28;20211;-84
2023/12/12 00:28:28;;;;;;;4.20;0.87;;;;;;;;;;4996644;28;20183;-84
2023/12/12 00:30:54;;;;;;;4.03;1.43;;;;;;;;;;4995113;28;20333;-84
2023/12/12 00:33:20;;;;;;;3.80;0.85;;;9.10;99.90;;;;;;5007331;28;20434;-85
2023/12/12 00:35:46;;;;;;;4.28;1.35;;;;;;;;;;4992531;28;20214;-84
2023/12/12 00:38:12;;;;;;;1.43;0.73;;;9.20;99.90;;;;;;4988239;28;20188;-85
2023/12/12 00:40:37;;;;;;;4.13;0.60;;;9.20;99.90;;;;;;4984642;28;20463;-85
2023/12/12 00:43:03;;;;;;;2.60;0.80;;;9.30;99.90;;;;;;4995500;28;20236;-85
2023/12/12 00:45:28;;;;;;;3.63;1.37;;;9.20;99.90;;;;;;4995411;28;20191;-85
2023/12/12 00:47:54;;;;;;;3.03;1.57;;;9.20;99.90;;;;;;4987351;28;20725;-85
2023/12/12 00:50:19;;;;;;;1.67;0.70;;;9.20;99.90;;;;;;4986762;28;20226;-85
2023/12/12 00:52:45;;;;;;;5.30;0.90;;;9.20;99.90;;;;;;4994126;28;20673;-85
2023/12/12 00:55:13;;;;;;;6.37;1.00;;;9.20;99.90;;;;;;4984213;28;20220;-84
2023/12/12 00:57:39;;;;;;;5.15;0.90;;;9.20;99.90;;;;;;4986481;28;20187;-84
2023/12/12 01:00:05;;;;;;;4.07;0.90;;;9.20;99.90;;;;;;4983607;28;20211;-84
2023/12/12 01:02:31;;;;;;;1.30;0.82;;;9.30;99.90;;;;;;4974168;28;20175;-82
2023/12/12 01:04:56;;;;;;;1.23;0.60;;;9.30;99.90;;;;;;4965914;28;20222;-83
2023/12/12 01:07:22;;;;;;;1.10;1.00;;;9.30;99.90;;;;;;4984950;28;20188;-83
2023/12/12 01:09:47;;;;;;;6.90;1.13;;;9.30;99.90;;;;;;4975082;28;20276;-84
2023/12/12 01:12:13;;;;;;;3.73;1.23;;;9.30;99.90;;;;;;4985184;28;20248;-84
2023/12/12 01:14:38;;;;;;;4.87;1.03;;;9.40;99.90;;;;;;4983432;28;20187;-85
2023/12/12 01:17:04;;;;;;;1.03;0.67;;;9.30;99.90;;;;;;4986751;28;20242;-84
2023/12/12 01:19:30;;;;;;;3.77;1.07;;;9.40;99.90;;;;;;4988173;28;20179;-83
2023/12/12 01:21:59;;;;;;;8.65;1.60;;;9.30;99.90;;;;;;4984851;28;20194;-83
2023/12/12 01:24:25;;;;;;;6.20;1.52;;;;;;;;;;4990081;28;20237;-83
2023/12/12 01:26:51;;;;;;;3.37;0.80;;;;;;;;;;4986359;28;20594;-84
2023/12/12 01:29:17;;;;;;;6.33;1.23;;;9.30;99.90;;;;;;4998415;28;20429;-84
2023/12/12 01:31:43;;;;;;;3.08;1.40;;;;;;;;;;4989814;28;20441;-84
2023/12/12 01:34:09;;;;;;;1.40;1.00;;;;;;;;;;4987828;28;20183;-83
2023/12/12 01:36:35;;;;;;;1.13;0.75;;;;;;;;;;4988978;28;20184;-82
2023/12/12 01:39:01;;;;;;;1.90;1.17;;;;;;;;;;4988377;28;20606;-83
2023/12/12 01:41:27;;;;;;;2.75;0.70;;;;;;;;;;4991326;28;20427;-84
2023/12/12 01:43:53;;;;;;;3.50;1.15;;;9.50;99.90;;;;;;4992395;28;20535;-84
2023/12/12 01:46:20;;;;;;;2.60;0.83;;;9.50;99.90;;;;;;4973764;28;20236;-84
2023/12/12 01:48:46;;;;;;;2.05;1.20;;;;;;;;;;4973818;28;20184;-86
2023/12/12 01:51:12;;;;;;;0.40;0.40;;;;;;;;;;4972422;28;20231;-84
2023/12/12 01:53:43;;;;;;;8.50;1.80;;;9.60;99.90;;;;;;4988314;28;20186;-83
2023/12/12 01:56:10;;;;;;;4.13;0.88;;;13.00;99.90;;;;;;4992585;28;20186;-83
2023/12/12 01:58:37;;;;;;;4.60;1.00;;;9.50;99.90;;;;;;4990779;28;20189;-83
2023/12/12 02:01:04;;;;;;;1.77;0.70;;;9.40;99.90;;;;;;4987164;28;20314;-84
2023/12/12 02:03:33;;;;;;;8.82;0.88;;;;;;;;;;4993621;28;20180;-84
2023/12/12 02:05:59;;;;;;;1.50;1.00;;;9.40;99.90;;;;;;4988804;28;20217;-84
2023/12/12 02:08:28;;;;;;;5.80;1.17;;;9.30;99.90;;;;;;4994830;28;20242;-84
2023/12/12 02:10:55;;;;;;;0.50;0.40;;;;;;;;;;4982744;28;20812;-84
2023/12/12 02:13:21;;;;;;;3.60;1.15;;;;;;;;;;4994362;28;20235;-84
2023/12/12 02:15:47;;;;;;;0.63;0.63;;;;;;;;;;4973688;28;20222;-84
2023/12/12 02:18:16;;;;;;;4.68;0.70;;;;;;;;;;4988818;28;20442;-84
2023/12/12 02:20:42;;;;;;;3.50;0.75;;;8.80;99.90;;;;;;4989864;28;20214;-84
2023/12/12 02:23:08;;;;;;;3.55;3.25;;;;;;;;;;4990435;28;20195;-84
2023/12/12 02:25:34;;;;;;;4.73;0.87;;;8.70;99.90;;;;;;4993204;28;20191;-84
2023/12/12 02:28:01;;;;;;;20.88;1.35;;;8.70;99.90;;;;;;4975206;28;20846;-84
2023/12/12 02:30:26;;;;;;;1.40;0.60;;;8.70;99.90;;;;;;4976751;28;20191;-84
2023/12/12 02:32:52;;;;;;;3.70;0.70;;;;;;;;;;4989327;28;20183;-84
2023/12/12 02:35:18;;;;;;;4.55;0.85;;;8.40;99.90;;;;;;4990062;28;20187;-83
2023/12/12 02:37:43;;;;;;;2.20;0.60;;;8.40;99.90;;;;;;4989090;28;20191;-84
2023/12/12 02:40:09;;;;;;;2.77;0.50;;;8.40;99.90;;;;;;4988958;28;20195;-82
2023/12/12 02:42:35;;;;;;;4.00;1.10;;;8.40;99.90;;;;;;4984168;28;20677;-83
2023/12/12 02:45:01;;;;;;;1.90;0.57;;;;;;;;;;4968467;28;20473;-83
2023/12/12 02:47:26;;;;;;;1.52;0.90;;;8.40;99.90;;;;;;4989085;28;20195;-84
2023/12/12 02:49:52;;;;;;;1.73;1.30;;;8.30;99.90;;;;;;4984836;28;20207;-83
2023/12/12 02:52:17;;;;;;;4.53;1.67;;;10.60;99.90;;;;;;4988884;28;20222;-85
2023/12/12 02:54:43;;;;;;;10.80;1.70;;;;;;;;;;4997946;28;20191;-84
2023/12/12 02:57:09;;;;;;;2.85;1.10;;;8.30;99.90;;;;;;4993218;28;20187;-83
2023/12/12 02:59:34;;;;;;;11.43;2.63;;;8.30;99.90;;;;;;4979951;28;20211;-83
2023/12/12 03:02:00;;;;;;;5.17;1.40;;;;;;;;;;4973119;28;20201;-83
2023/12/12 03:04:26;;;;;;;2.43;0.70;;;8.40;99.90;;;;;;4989978;28;20195;-84
2023/12/12 03:06:51;;;;;;;3.87;1.00;;;8.40;99.90;;;;;;4990855;28;20445;-84
2023/12/12 03:09:17;;;;;;;2.93;0.80;;;8.40;99.90;;;;;;4971092;28;20722;-83
2023/12/12 03:11:44;;;;;;;2.93;0.87;;;8.40;99.90;;;;;;4971009;28;20221;-84
2023/12/12 03:14:10;;;;;;;11.32;1.58;;;8.40;99.90;;;;;;4985193;28;20598;-85
2023/12/12 03:16:35;;;;;;;9.63;1.17;;;8.40;99.90;;;;;;4969840;28;20275;-85
2023/12/12 03:19:01;;;;;;;8.27;1.17;;;8.60;99.90;;;;;;4968944;28;20276;-84
2023/12/12 03:21:26;;;;;;;6.80;0.93;;;8.50;99.90;;;;;;4993145;28;20325;-86
2023/12/12 03:23:53;;;;;;;5.73;1.27;;;8.60;99.90;;;;;;4974872;28;20172;-85
2023/12/12 03:26:19;;;;;;;3.53;0.90;;;;;;;;;;4970900;28;21164;-85
2023/12/12 03:28:45;;;;;;;1.93;1.10;;;;;;;;;;4983717;28;20187;-86
2023/12/12 03:31:11;;;;;;;3.70;0.97;;;;;;;;;;4988869;28;20451;-85
2023/12/12 03:33:37;;;;;;;1.23;0.70;;;8.30;99.90;;;;;;4987026;28;20426;-85
2023/12/12 03:36:07;;;;;;;1.20;0.70;;;8.10;99.90;;;;;;4987386;28;20423;-85
2023/12/12 03:38:33;;;;;;;2.90;0.82;;;8.10;99.90;;;;;;4984139;28;20820;-85
2023/12/12 03:40:58;;;;;;;1.90;1.00;;;8.00;99.90;;;;;;4966804;28;20275;-85
2023/12/12 03:43:24;;;;;;;5.73;1.00;;;7.90;99.90;;;;;;4968920;28;20198;-85
2023/12/12 03:45:49;;;;;;;2.60;0.77;;;7.90;99.90;;;;;;4979038;28;20233;-85
2023/12/12 03:48:15;;;;;;;1.43;1.00;;;7.80;99.90;;;;;;4973703;28;20534;-84
2023/12/12 03:50:40;;;;;;;14.53;1.33;;;7.80;99.90;;;;;;4970233;28;20293;-85
2023/12/12 03:53:06;;;;;;;2.00;0.93;;;7.80;99.90;;;;;;4978949;28;20183;-85
2023/12/12 03:55:32;;;;;;;4.70;0.93;;;7.80;99.90;;;;;;4972759;28;20221;-85
2023/12/12 03:57:58;;;;;;;4.83;1.30;;;;;;;;;;4988797;28;20186;-85
2023/12/12 04:00:24;;;;;;;3.65;0.82;;;7.80;99.90;;;;;;4984550;28;20223;-85
2023/12/12 04:02:50;;;;;;;2.83;1.03;;;7.80;99.90;;;;;;4986244;28;20748;-84
2023/12/12 04:05:15;;;;;;;3.72;0.65;;;7.80;99.90;;;;;;4983494;28;20199;-84
2023/12/12 04:07:42;;;;;;;0.40;0.40;;;7.80;99.90;;;;;;4987912;28;20575;-85
2023/12/12 04:10:08;;;;;;;0.40;0.30;;;7.80;99.90;;;;;;4989201;28;20208;-85
2023/12/12 04:12:37;;;;;;;0.70;0.60;;;7.80;99.90;;;;;;4973807;28;20192;-85
2023/12/12 04:15:03;;;;;;;2.55;0.60;;;7.70;99.90;;;;;;4976007;28;20188;-86
2023/12/12 04:17:29;;;;;;;1.20;0.98;;;7.70;99.90;;;;;;4983026;28;20190;-83
2023/12/12 04:19:55;;;;;;;0.40;0.30;;;7.70;99.90;;;;;;4988655;28;20203;-85
2023/12/12 04:22:21;;;;;;;8.80;1.20;;;7.80;99.90;;;;;;4988919;28;20306;-85
2023/12/12 04:24:47;;;;;;;0.40;0.40;;;7.90;99.90;;;;;;5000598;28;20214;-85
2023/12/12 04:27:12;;;;;;;1.43;0.50;;;7.90;99.90;;;;;;4992247;28;20447;-86
2023/12/12 04:29:38;;;;;;;3.40;0.70;;;7.90;99.90;;;;;;4996101;28;20460;-85
2023/12/12 04:32:05;;;;;;;2.10;0.77;;;7.90;99.90;;;;;;4993361;28;20191;-84
2023/12/12 04:34:31;;;;;;;0.60;0.50;;;7.90;99.90;;;;;;4987819;28;20202;-85
2023/12/12 04:36:57;;;;;;;1.60;0.65;;;7.90;99.90;;;;;;4989779;28;20195;-85
2023/12/12 04:39:23;;;;;;;6.50;1.10;;;7.90;99.90;;;;;;4982077;28;20191;-85
2023/12/12 04:41:49;;;;;;;0.60;0.60;;;;;;;;;;4993085;28;20195;-85
2023/12/12 04:44:15;;;;;;;10.02;0.70;;;8.00;99.90;;;;;;4985290;28;20207;-85
2023/12/12 04:46:41;;;;;;;1.70;0.50;;;7.90;99.90;;;;;;4972269;28;20184;-85
2023/12/12 04:49:06;;;;;;;9.17;1.83;;;7.90;99.90;;;;;;4976786;28;20201;-85
2023/12/12 04:51:32;;;;;;;0.60;0.57;;;;;;;;;;4980367;28;20204;-86
2023/12/12 04:53:58;;;;;;;2.30;1.33;;;;;;;;;;4984077;28;20609;-84
2023/12/12 04:56:24;;;;;;;0.87;0.87;;;7.50;99.90;;;;;;4982087;28;21557;-85
2023/12/12 04:58:49;;;;;;;0.87;0.67;;;7.20;99.90;;;;;;4981255;28;20531;-83
2023/12/12 05:01:15;;;;;;;3.83;0.83;;;7.10;99.90;;;;;;4968974;28;20215;-84
2023/12/12 05:03:41;;;;;;;0.98;0.60;;;7.00;99.90;;;;;;4987464;28;20191;-84
2023/12/12 05:06:10;;;;;;;10.60;1.20;;;6.90;99.90;;;;;;4978771;28;20226;-84
2023/12/12 05:08:35;;;;;;;0.77;0.50;;;6.90;99.90;;;;;;4978317;28;20243;-84
2023/12/12 05:11:01;;;;;;;6.53;1.17;;;6.80;99.90;;;;;;4968732;28;20272;-83
2023/12/12 05:13:26;;;;;;;1.50;0.97;;;6.80;99.90;;;;;;4984144;28;20203;-84
2023/12/12 05:15:52;;;;;;;3.23;0.90;;;6.70;99.90;;;;;;4978741;28;20196;-83
2023/12/12 05:18:17;;;;;;;3.63;0.80;;;6.70;99.90;;;;;;4983116;28;20229;-84
2023/12/12 05:20:44;;;;;;;2.03;0.70;;;6.60;99.90;;;;;;4969099;28;20893;-85
2023/12/12 05:23:11;;;;;;;0.93;0.57;;;6.80;99.90;;;;;;4978827;28;20187;-85
2023/12/12 05:25:36;;;;;;;0.90;0.73;;;6.80;99.90;;;;;;4977458;28;21117;-85
2023/12/12 05:28:02;;;;;;;0.73;0.70;;;6.90;99.90;;;;;;4993192;28;20183;-85
2023/12/12 05:30:27;;;;;;;0.73;0.73;;;7.10;99.90;;;;;;4982318;28;20202;-84
2023/12/12 05:32:53;;;;;;;7.23;0.90;;;7.20;99.90;;;;;;4963951;28;20180;-82
2023/12/12 05:35:19;;;;;;;2.57;0.70;;;7.10;99.90;;;;;;4987798;28;20210;-85
2023/12/12 05:37:44;;;;;;;0.90;0.50;;;7.10;99.90;;;;;;4989708;28;20195;-84
2023/12/12 05:40:14;;;;;;;3.60;1.57;;;7.20;99.90;;;;;;4990104;28;20717;-84
2023/12/12 05:42:40;;;;;;;8.52;1.45;;;7.30;99.90;;;;;;4986075;28;20183;-82
2023/12/12 05:45:07;;;;;;;4.45;1.00;;;7.50;99.90;;;;;;4984933;28;20205;-82
2023/12/12 05:47:33;;;;;;;0.90;0.55;;;7.40;99.90;;;;;;4982425;28;20186;-84
2023/12/12 05:49:58;;;;;;;5.73;0.83;;;7.40;99.90;;;;;;4990962;28;20211;-84
2023/12/12 05:52:25;;;;;;;1.30;1.00;;;7.50;99.90;;;;;;4985700;28;20187;-84
2023/12/12 05:54:51;;;;;;;1.67;0.50;;;7.40;99.90;;;;;;4984834;28;21777;-84
2023/12/12 05:57:17;;;;;;;0.50;0.50;;;7.60;99.90;;;;;;4962323;28;20218;-84
2023/12/12 05:59:42;;;;;;;1.90;1.37;;;7.60;99.90;;;;;;4984879;28;20520;-84
2023/12/12 06:02:08;;;;;;;2.27;1.13;;;;;;;;;;4984651;28;20207;-85
2023/12/12 06:04:35;;;;;;;1.13;0.93;;;7.60;99.90;;;;;;4983208;28;20199;-85
2023/12/12 06:07:01;;;;;;;0.60;0.60;;;7.70;99.90;;;;;;4991462;28;20280;-87
2023/12/12 06:09:27;;;;;;;2.75;1.27;;;8.00;99.90;;;;;;4992103;28;20185;-86
2023/12/12 06:11:53;;;;;;;2.87;1.00;;;;;;;;;;4989791;28;20176;-86
2023/12/12 06:14:19;;;;;;;0.87;0.87;;;8.00;99.90;;;;;;4986964;28;20440;-86
2023/12/12 06:16:44;;;;;;;0.70;0.63;;;8.10;99.90;;;;;;4974591;28;20434;-85
2023/12/12 06:19:10;;;;;;;1.47;0.97;;;8.10;99.90;;;;;;4993577;28;20274;-85
2023/12/12 06:21:36;;;;;;;1.03;0.67;;;7.80;99.90;;;;;;4980115;28;20226;-85
2023/12/12 06:24:03;;;;;;;2.40;1.70;;;7.80;99.90;;;;;;4977114;28;20187;-85
2023/12/12 06:26:29;;;;;;;6.38;1.55;;;7.60;99.90;;;;;;4987540;28;20191;-84
2023/12/12 06:28:55;;;;;;;0.50;0.47;;;7.50;99.90;;;;;;5005831;28;20265;-85
2023/12/12 06:31:23;;;;;;;1.80;0.80;;;7.40;99.90;;;;;;4993937;28;20257;-85
2023/12/12 06:33:50;;;;;;;0.70;0.70;;;7.40;99.90;;;;;;4980711;28;20190;-84
2023/12/12 06:36:15;;;;;;;3.33;0.90;;;7.60;99.90;;;;;;4970202;28;20195;-85
2023/12/12 06:38:42;;;;;;;0.70;0.57;;;7.70;99.90;;;;;;5008304;28;20187;-84
2023/12/12 06:41:09;;;;;;;1.90;0.90;;;7.80;99.90;;;;;;4980397;28;20920;-85
2023/12/12 06:43:34;;;;;;;2.75;0.90;;;7.90;99.90;;;;;;4991694;28;20227;-82
2023/12/12 06:46:00;;;;;;;1.13;0.83;;;7.80;99.90;;;;;;4986417;28;20246;-85
2023/12/12 06:48:26;;;;;;;1.70;1.07;;;7.90;99.90;;;;;;4971562;28;20175;-85
2023/12/12 06:50:52;;;;;;;1.97;1.47;;;7.80;99.90;;;;;;4986147;28;20231;-83
2023/12/12 06:53:18;;;;;;;3.93;1.03;;;;;;;;;;4968479;28;20437;-84
2023/12/12 06:55:44;;;;;;;4.28;1.50;;;7.50;99.90;;;;;;4994369;28;20487;-84
2023/12/12 06:58:11;;;;;;;5.57;1.37;;;7.30;99.90;;;;;;5054974;28;20173;-84
2023/12/12 07:00:39;;;;;;;2.17;1.33;;;7.10;99.90;;;;;;5034895;28;20261;-84
2023/12/12 07:03:05;;;;;;;5.07;1.65;;;7.00;99.90;;;;;;5035169;28;20195;-84
2023/12/12 07:05:31;;;;;;;1.33;1.00;;;6.90;99.90;;;;;;4997108;28;20199;-84
2023/12/12 07:07:56;;;;;;;5.00;2.20;;;7.00;99.90;;;;;;4980391;28;20932;-84
2023/12/12 07:10:22;;;;;;;2.00;1.53;;;7.10;99.90;;;;;;4973734;28;20700;-84
2023/12/12 07:12:47;;;;;;;6.77;1.57;;;7.20;99.90;;;;;;4983115;28;20210;-83
2023/12/12 07:15:13;;;;;;;2.87;1.83;;;7.30;99.90;;;;;;4992343;28;20170;-84
2023/12/12 07:17:39;;;;;;;2.30;1.73;;;7.40;99.90;;;;;;4998428;28;20191;-84
2023/12/12 07:20:05;;;;;;;2.80;1.40;;;7.50;99.90;;;;;;4974891;28;20196;-84
2023/12/12 07:22:30;;;;;;;2.15;0.70;;;7.40;99.90;;;;;;4980148;28;20191;-84
2023/12/12 07:24:56;;;;;;;1.50;1.07;;;7.40;99.90;;;;;;4986389;28;20662;-84
2023/12/12 07:27:22;;;;;;;3.90;0.73;;;7.50;99.90;;;;;;4968233;28;20222;-84
2023/12/12 07:29:47;;;;;;;1.10;0.60;;;7.60;99.90;;;;;;4978789;28;20235;-84
2023/12/12 07:32:13;;;;;;;1.07;0.60;;;7.70;99.90;;;;;;4982303;28;20179;-84
2023/12/12 07:34:38;;;;;;;0.60;0.43;;;7.90;99.90;;;;;;4990715;28;20175;-85
2023/12/12 07:37:05;;;;;;;1.37;1.10;;;7.90;99.90;;;;;;4985090;28;20242;-83
2023/12/12 07:39:31;;;;;;;0.95;0.50;;;8.00;99.90;;;;;;4990038;28;20164;-84
2023/12/12 07:41:57;;;;;;;0.90;0.63;;;8.00;99.90;;;;;;4997973;28;20175;-84
2023/12/12 07:44:23;;;;;;;2.53;0.70;;;8.10;99.90;;;;;;4979662;28;20275;-82
2023/12/12 07:46:49;;;;;;;1.05;0.60;;;8.10;99.90;;;;;;4975906;28;20176;-84
2023/12/12 07:49:17;;;;;;;2.03;1.40;;;8.20;99.90;;;;;;4966609;28;20183;-83
2023/12/12 07:51:42;;;;;;;1.15;0.90;;;8.20;99.90;;;;;;4997005;28;20808;-84
2023/12/12 07:54:08;;;;;;;0.90;0.57;;;8.40;99.90;;;;;;4988594;28;20255;-84
2023/12/12 07:56:34;;;;;;;5.20;1.13;;;8.50;99.90;;;;;;4985143;28;20737;-85
2023/12/12 07:58:59;;;;;;;1.23;0.83;;;8.70;99.90;;;;;;4972926;28;20466;-84
2023/12/12 08:01:25;;;;;;;0.80;0.80;;;8.80;99.90;;;;;;5013480;28;20247;-86
2023/12/12 08:03:50;;;;;;;0.43;0.43;;;8.60;99.90;;;;;;4976272;28;20208;-84
2023/12/12 08:06:16;;;;;;;0.80;0.80;;;8.60;99.90;;;;;;4975925;28;20230;-85
2023/12/12 08:08:42;;;;;;;1.27;0.70;;;8.70;99.90;;;;;;4976924;28;20190;-85
2023/12/12 08:11:14;;;;;;;1.23;0.57;;;8.70;99.90;;;;;;4974482;28;20521;-84
2023/12/12 08:13:40;;;;;;;1.70;0.70;;;8.70;99.90;;;;;;4982092;28;20228;-86
2023/12/12 08:16:06;;;;;;;1.57;0.50;;;8.70;99.90;;;;;;5002119;28;20230;-86
2023/12/12 08:18:32;;;;;;;1.13;0.73;;;8.80;99.90;;;;;;4984761;28;20564;-86
2023/12/12 08:20:57;;;;;;;1.33;0.60;;;8.80;99.90;;;;;;4984057;28;20207;-85
2023/12/12 08:23:23;;;;;;;0.97;0.50;;;8.80;99.90;;;;;;4969396;28;20180;-85
2023/12/12 08:25:49;;;;;;;0.77;0.60;;;8.80;99.90;;;;;;4964957;28;20203;-85
2023/12/12 08:28:15;;;;;;;0.55;0.40;;;8.90;99.90;;;;;;4964368;28;20157;-85
2023/12/12 08:30:41;;;;;;;1.07;0.87;;;9.00;99.90;;;;;;4964422;28;20206;-86
2023/12/12 08:33:06;;;;;;;4.20;0.90;;;;;;;;;;4964191;28;20714;-85
2023/12/12 08:35:32;;;;;;;14.50;1.23;;;;;;;;;;4987117;28;20482;-85
2023/12/12 08:37:58;;;;;;;0.80;0.50;;;9.30;99.90;;;;;;4987511;28;20951;-86
2023/12/12 08:40:24;;;;;;;1.80;0.80;;;9.20;99.90;;;;;;4982915;28;20975;-85
2023/12/12 08:42:49;;;;;;;0.57;0.50;;;9.30;99.90;;;;;;5001229;28;20974;-85
2023/12/12 08:45:15;;;;;;;0.90;0.47;;;9.30;99.90;;;;;;4971128;28;20233;-86
2023/12/12 08:47:41;;;;;;;4.20;0.80;;;;;;;;;;4964554;28;20187;-85
2023/12/12 08:50:09;;;;;;;0.63;0.63;;;9.20;99.90;;;;;;5046085;28;20685;-86
2023/12/12 08:52:34;;;;;;;2.45;0.80;;;9.30;99.90;;;;;;4982376;28;20426;-85
2023/12/12 08:55:03;;;;;;;3.05;1.10;;;9.50;99.90;;;;;;4980627;28;20184;-85
2023/12/12 08:57:29;;;;;;;1.60;0.80;;;;;;;;;;5000566;28;20183;-86
2023/12/12 08:59:55;;;;;;;1.65;1.13;;;;;;;;;;5027294;28;20231;-86
2023/12/12 09:02:21;;;;;;;1.00;0.67;;;;;;;;;;5005093;28;20221;-85
2023/12/12 09:04:47;;;;;;;1.17;0.68;;;9.80;99.90;;;;;;4993405;28;20480;-85
2023/12/12 09:07:13;;;;;;;3.23;1.57;;;9.60;99.90;;;;;;4983125;28;20171;-85
2023/12/12 09:09:38;;;;;;;1.30;0.50;;;9.40;99.90;;;;;;4990541;28;20466;-86
2023/12/12 09:12:05;;;;;;;1.40;0.53;;;9.30;99.90;;;;;;4990528;28;20191;-85
2023/12/12 09:14:31;;;;;;;1.95;0.82;;;9.40;99.90;;;;;;4982667;28;20175;-86
2023/12/12 09:16:56;;;;;;;1.63;0.60;;;9.40;99.90;;;;;;4997528;28;20190;-86
2023/12/12 09:19:22;;;;;;;1.33;0.87;;;;;;;;;;4963027;28;20183;-85
2023/12/12 09:21:49;;;;;;;1.03;1.03;;;;;;;;;;4978938;28;20531;-86
2023/12/12 09:24:14;;;;;;;2.05;0.60;;;9.20;99.90;;;;;;4993243;28;20427;-86
2023/12/12 09:26:40;;;;;;;0.77;0.50;;;;;;;;;;5020144;28;20176;-85
2023/12/12 09:29:06;;;;;;;0.40;0.30;;;9.30;99.90;;;;;;5081860;28;20173;-86
2023/12/12 09:31:33;;;;;;;0.83;0.83;;;;;;;;;;5003585;28;20688;-85
2023/12/12 09:33:59;;;;;;;0.40;0.40;;;9.30;99.90;;;;;;4982510;28;20179;-86
2023/12/12 09:36:24;;;;;;;0.50;0.50;;;9.40;99.90;;;;;;4976240;28;20208;-85
2023/12/12 09:38:50;;;;;;;0.50;0.40;;;9.30;99.90;;;;;;4977359;28;20199;-85
2023/12/12 09:41:23;;;;;;;0.60;0.57;;;9.30;99.90;;;;;;4989239;28;20264;-86
2023/12/12 09:43:50;;;;;;;2.05;0.77;;;9.40;99.90;;;;;;4983165;28;20187;-86
2023/12/12 09:46:16;;;;;;;3.08;1.33;;;9.50;99.90;;;;;;4963610;28;20210;-85
2023/12/12 09:48:43;;;;;;;1.17;1.08;;;9.60;99.90;;;;;;4962920;28;20239;-85
2023/12/12 09:51:09;;;;;;;0.40;0.30;;;;;;;;;;4964362;28;20198;-85
2023/12/12 09:53:36;;;;;;;0.77;0.73;;;;;;;;;;5047731;28;20211;-88
2023/12/12 09:56:03;;;;;;;0.80;0.80;;;9.80;99.90;;;;;;4993256;28;20420;-86
2023/12/12 09:58:29;;;;;;;1.13;0.80;;;9.80;99.90;;;;;;4990809;28;20210;-85
2023/12/12 10:00:56;;;;;;;4.70;0.93;;;9.70;99.90;;;;;;4972676;28;20225;-85
2023/12/12 10:03:22;;;;;;;0.60;0.60;;;;;;;;;;4982982;28;20587;-85
2023/12/12 10:05:54;;;;;;;1.00;0.70;;;9.60;99.90;;;;;;4981538;28;20233;-87
2023/12/12 10:08:20;;;;;;;0.70;0.70;;;9.60;99.90;;;;;;4977165;28;20180;-86
2023/12/12 10:10:49;;;;;;;0.63;0.55;;;9.60;99.90;;;;;;4981366;28;20215;-85
2023/12/12 10:13:15;;;;;;;2.45;1.40;;;;;;;;;;4980741;28;20190;-87
2023/12/12 10:15:41;;;;;;;1.20;1.00;;;;;;;;;;4994462;28;20651;-87
2023/12/12 10:18:07;;;;;;;1.03;0.70;;;;;;;;;;4984920;28;20908;-86
2023/12/12 10:20:35;;;;;;;1.50;0.95;;;;;;;;;;4998585;28;20434;-87
2023/12/12 10:23:02;;;;;;;0.95;0.70;;;9.50;99.90;;;;;;4992782;28;20179;-85
2023/12/12 10:25:29;;;;;;;2.20;0.95;;;9.40;99.90;;;;;;4971654;28;20583;-88
2023/12/12 10:27:56;;;;;;;2.13;1.13;;;9.40;99.90;;;;;;4978739;28;20604;-87
2023/12/12 10:30:22;;;;;;;0.68;0.68;;;;;;;;;;4981858;28;20199;-86
2023/12/12 10:32:52;;;;;;;4.28;1.15;;;9.20;99.90;;;;;;4996346;28;20179;-86
2023/12/12 10:35:21;;;;;;;0.50;0.50;;;9.10;99.90;;;;;;4975645;28;20259;-87
2023/12/12 10:37:48;;;;;;;1.52;0.60;;;9.10;99.90;;;;;;4974474;28;20183;-87
2023/12/12 10:40:15;;;;;;;1.08;1.00;;;9.00;99.90;;;;;;4982721;28;20188;-87
2023/12/12 10:42:42;;;;;;;0.60;0.50;;;8.90;99.90;;;;;;4983225;28;20252;-88
2023/12/12 10:45:12;;;;;;;0.75;0.75;;;8.80;99.90;;;;;;4991415;28;20198;-87
2023/12/12 10:47:41;;;;;;;2.15;1.08;;;8.90;99.90;;;;;;5001493;28;20223;-86
2023/12/12 10:50:16;;;;;;;0.80;0.60;;;8.90;99.90;;;;;;4984958;28;20206;-86
2023/12/12 10:52:43;;;;;;;0.75;0.75;;;9.00;99.90;;;;;;4969910;28;20176;-87
2023/12/12 10:55:14;;;;;;;0.50;0.50;;;9.10;99.90;;;;;;4980101;28;20195;-87
2023/12/12 10:57:46;;;;;;;1.48;1.35;;;9.10;99.90;;;;;;4997320;28;20175;-87
2023/12/12 11:00:14;;;;;;;1.25;0.95;;;9.10;99.90;;;;;;4982658;28;20215;-86
2023/12/12 11:02:41;;;;;;;1.77;1.17;;;9.10;99.90;;;;;;5000603;28;20235;-86
2023/12/12 11:05:08;;;;;;;1.15;0.70;;;9.10;99.90;;;;;;5065169;28;20227;-86
2023/12/12 11:07:38;;;;;;;1.25;1.02;;;9.40;99.90;;;;;;5049241;28;20221;-87
2023/12/12 11:10:08;;;;;;;2.38;1.80;;;9.20;99.90;;;;;;4983684;28;20200;-86
2023/12/12 11:12:34;;;;;;;2.20;0.45;;;;;;;;;;4962532;28;20180;-86
2023/12/12 11:15:00;;;;;;;0.90;0.90;;;;;;;;;;4983155;28;20909;-87
2023/12/12 11:17:26;;;;;;;3.22;1.17;;;9.20;99.90;;;;;;4983817;28;20584;-86
2023/12/12 11:19:53;;;;;;;3.40;2.13;;;9.20;99.90;;;;;;4966693;28;20206;-87
2023/12/12 11:22:43;;;;;;;4.45;0.70;;;9.20;99.90;;;;;;4984041;28;20206;-87
2023/12/12 11:25:16;;;;;;;1.20;1.08;;;9.20;99.90;;;;;;5003836;28;20242;-86
2023/12/12 11:27:45;;;;;;;1.42;0.90;;;9.10;99.90;;;;;;4995259;28;20195;-87
2023/12/12 11:30:11;;;;;;;0.60;0.50;;;9.10;99.90;;;;;;4985260;28;20995;-86
2023/12/12 11:32:36;;;;;;;3.63;1.33;;;;;;;;;;4984306;28;20175;-87
2023/12/12 11:35:08;;;;;;;0.90;0.80;;;9.30;99.90;;;;;;4993611;28;20333;-87
2023/12/12 11:37:45;;;;;;;1.15;1.00;;;9.40;99.90;;;;;;4987537;28;20608;-87
2023/12/12 11:40:11;;;;;;;1.35;1.25;;;9.40;99.90;;;;;;4985106;28;20545;-87
2023/12/12 11:42:41;;;;;;;0.90;0.90;;;9.40;99.90;;;;;;4984646;28;20201;-88
2023/12/12 11:45:07;;;;;;;2.03;1.92;;;9.40;99.90;;;;;;4991218;28;20242;-87
2023/12/12 11:47:33;;;;;;;3.05;0.85;;;9.40;99.90;;;;;;4992824;28;20183;-86
2023/12/12 11:50:11;;;;;;;1.37;1.23;;;9.40;99.90;;;;;;4983812;28;20203;-86
2023/12/12 11:52:39;;;;;;;1.30;1.15;;;9.50;99.90;;;;;;4989602;28;20175;-86
2023/12/12 11:55:07;;;;;;;1.10;0.80;;;9.50;99.90;;;;;;4971682;28;20183;-85
2023/12/12 11:57:34;;;;;;;0.60;0.50;;;9.50;99.90;;;;;;5003202;28;20190;-86
2023/12/12 12:00:03;;;;;;;3.53;1.27;;;9.50;99.90;;;;;;4991083;28;20223;-85
2023/12/12 12:02:31;;;;;;;1.35;1.25;;;9.60;99.90;;;;;;5085614;28;20168;-85
2023/12/12 12:04:58;;;;;;;1.50;0.90;;;9.70;99.90;;;;;;5002604;28;20283;-86
2023/12/12 12:07:24;;;;;;;1.88;0.88;;;;;;;;;;4997896;28;20254;-85
2023/12/12 12:09:52;;;;;;;2.67;1.15;;;9.90;99.90;;;;;;4994831;28;20191;-85
2023/12/12 12:12:18;;;;;;;7.93;2.42;;;;;;;;;;4984469;28;20175;-85
2023/12/12 12:14:44;;;;;;;3.33;1.67;;;;;;;;;;4982275;28;20242;-85
2023/12/12 12:17:10;;;;;;;0.50;0.50;;;;;;;;;;4983613;28;20183;-85
2023/12/12 12:19:37;;;;;;;1.37;0.73;;;9.50;99.90;;;;;;4984344;28;20574;-85
2023/12/12 12:22:06;;;;;;;0.90;0.30;;;9.50;99.90;;;;;;4983085;28;20434;-86
2023/12/12 12:24:32;;;;;;;0.93;0.55;;;;;;;;;;4984661;28;20211;-86
2023/12/12 12:26:58;;;;;;;0.73;0.55;;;;;;;;;;5002692;28;20701;-87
2023/12/12 12:29:25;;;;;;;0.50;0.50;;;;;;;;;;5011865;28;20182;-86
2023/12/12 12:31:52;;;;;;;1.63;0.98;;;9.30;99.90;;;;;;4984770;28;20175;-85
2023/12/12 12:34:21;;;;;;;1.38;0.75;;;9.20;99.90;;;;;;4987946;28;20205;-85
2023/12/12 12:36:48;;;;;;;1.88;0.85;;;;;;;;;;4993813;28;20203;-86
2023/12/12 12:39:18;;;;;;;4.63;0.70;;;9.30;99.90;;;;;;4989324;28;20270;-86
2023/12/12 12:41:52;;;;;;;0.98;0.60;;;9.10;99.90;;;;;;4983586;28;20190;-87
2023/12/12 12:44:18;;;;;;;1.15;1.05;;;;;;;;;;4974770;28;20217;-86
2023/12/12 12:46:53;;;;;;;0.60;0.53;;;9.50;99.90;;;;;;4999721;28;20176;-86
2023/12/12 12:49:20;;;;;;;1.70;0.65;;;;;;;;;;4975037;28;20531;-86
2023/12/12 12:51:47;;;;;;;1.40;0.80;;;;;;;;;;4987771;28;20183;-85
2023/12/12 12:54:14;;;;;;;4.75;1.67;;;9.50;99.90;;;;;;4977278;28;20506;-86
2023/12/12 12:56:42;;;;;;;1.15;1.05;;;9.60;99.90;;;;;;5034230;28;20188;-85
2023/12/12 12:59:08;;;;;;;7.40;1.00;;;;;;;;;;5000089;28;20180;-85
2023/12/12 13:01:34;;;;;;;1.20;1.08;;;;;;;;;;4989958;28;20218;-85
2023/12/12 13:04:00;;;;;;;3.20;1.23;;;;;;;;;;4998241;28;20220;-86
2023/12/12 13:06:26;;;;;;;0.80;0.70;;;;;;;;;;4990632;28;20897;-85
2023/12/12 13:08:52;;;;;;;0.60;0.45;;;;;;;;;;4992263;28;21263;-85
2023/12/12 13:11:18;;;;;;;1.17;0.80;;;;;;;;;;5007274;28;20191;-85
2023/12/12 13:13:46;;;;;;;1.50;0.93;;;;;;;;;;4994554;28;20670;-85